createdAt,value
2022-10-09T00:00:07.093Z,12.02
2022-10-09T00:02:56.049Z,11.94
2022-10-09T00:05:40.638Z,11.89
2022-10-09T00:08:24.427Z,11.76
2022-10-09T00:11:09.786Z,11.97
2022-10-09T00:13:55.049Z,11.91
2022-10-09T00:16:40.559Z,12.10
2022-10-09T00:19:24.502Z,11.96
2022-10-09T00:22:08.335Z,11.84
2022-10-09T00:24:52.141Z,11.85
2022-10-09T00:27:35.900Z,11.89
2022-10-09T00:30:19.738Z,11.98
2022-10-09T00:33:05.365Z,11.89
2022-10-09T00:35:49.514Z,11.85
2022-10-09T00:38:33.431Z,11.82
2022-10-09T00:41:19.168Z,11.82
2022-10-09T00:44:04.335Z,12.01
2022-10-09T00:46:52.040Z,12.05
2022-10-09T00:49:37.804Z,11.80
2022-10-09T00:52:22.985Z,11.87
2022-10-09T00:55:09.310Z,11.82
2022-10-09T00:57:56.176Z,11.79
2022-10-09T01:00:40.075Z,11.55
2022-10-09T01:03:23.851Z,11.67
2022-10-09T01:06:18.311Z,11.78
2022-10-09T01:09:07.482Z,11.38
2022-10-09T01:12:00.138Z,11.81
2022-10-09T01:14:52.936Z,11.72
2022-10-09T01:17:42.387Z,11.72
2022-10-09T01:20:40.360Z,11.77
2022-10-09T01:23:57.964Z,11.70
2022-10-09T01:27:15.026Z,11.65
2022-10-09T01:30:01.752Z,11.39
2022-10-09T01:32:51.091Z,11.61
2022-10-09T01:35:35.888Z,11.68
2022-10-09T01:38:21.815Z,11.76
2022-10-09T01:41:07.375Z,11.78
2022-10-09T01:43:52.495Z,11.66
2022-10-09T01:46:36.340Z,11.61
2022-10-09T01:49:33.287Z,11.48
2022-10-09T01:52:26.476Z,11.39
2022-10-09T01:55:21.265Z,11.78
2022-10-09T01:58:12.239Z,11.81
2022-10-09T02:01:03.401Z,11.84
2022-10-09T02:03:51.108Z,11.84
2022-10-09T02:06:37.002Z,11.82
2022-10-09T02:09:21.163Z,11.89
2022-10-09T02:12:09.109Z,11.88
2022-10-09T02:14:53.182Z,11.90
2022-10-09T02:17:43.573Z,11.78
2022-10-09T02:20:32.363Z,11.90
2022-10-09T02:23:18.217Z,12.02
2022-10-09T02:26:02.180Z,11.96
2022-10-09T02:28:46.385Z,12.02
2022-10-09T02:31:32.143Z,12.03
2022-10-09T02:34:19.935Z,12.09
2022-10-09T02:37:03.877Z,11.87
2022-10-09T02:39:47.655Z,11.64
2022-10-09T02:42:31.427Z,12.21
2022-10-09T02:45:15.262Z,12.18
2022-10-09T02:47:58.931Z,12.07
2022-10-09T02:50:44.125Z,12.01
2022-10-09T02:53:27.923Z,12.19
2022-10-09T02:56:11.741Z,12.04
2022-10-09T02:58:55.647Z,11.81
2022-10-09T03:01:39.683Z,12.01
2022-10-09T03:04:23.540Z,11.85
2022-10-09T03:07:08.792Z,12.08
2022-10-09T03:09:52.864Z,12.00
2022-10-09T03:12:36.741Z,12.31
2022-10-09T03:15:20.712Z,12.15
2022-10-09T03:18:04.786Z,12.12
2022-10-09T03:20:49.235Z,12.11
2022-10-09T03:23:34.956Z,12.04
2022-10-09T03:26:21.233Z,12.05
2022-10-09T03:29:05.286Z,12.39
2022-10-09T03:31:53.520Z,11.85
2022-10-09T03:34:37.705Z,12.17
2022-10-09T03:37:21.617Z,11.88
2022-10-09T03:40:08.127Z,11.78
2022-10-09T03:42:52.276Z,12.56
2022-10-09T03:45:36.643Z,12.04
2022-10-09T03:48:20.633Z,11.94
2022-10-09T03:51:04.888Z,11.98
2022-10-09T03:53:48.890Z,12.27
2022-10-09T03:56:34.374Z,12.04
2022-10-09T03:59:18.358Z,12.27
2022-10-09T04:02:02.283Z,11.91
2022-10-09T04:04:46.328Z,11.97
2022-10-09T04:07:30.517Z,12.02
2022-10-09T04:10:14.517Z,11.93
2022-10-09T04:12:59.977Z,12.12
2022-10-09T04:15:51.698Z,12.23
2022-10-09T04:18:35.716Z,12.04
2022-10-09T04:21:19.702Z,12.05
2022-10-09T04:24:03.939Z,12.09
2022-10-09T04:26:47.847Z,12.03
2022-10-09T04:29:33.303Z,12.46
2022-10-09T04:32:17.448Z,11.95
2022-10-09T04:35:01.409Z,11.90
2022-10-09T04:37:45.711Z,11.71
2022-10-09T04:40:29.580Z,12.12
2022-10-09T04:43:13.599Z,11.91
2022-10-09T04:45:59.211Z,12.05
2022-10-09T04:48:45.602Z,12.14
2022-10-09T04:51:29.746Z,12.35
2022-10-09T04:54:14.058Z,12.78
2022-10-09T04:56:58.045Z,12.79
2022-10-09T04:59:42.340Z,12.91
2022-10-09T05:02:27.706Z,13.04
2022-10-09T05:05:13.043Z,13.34
2022-10-09T05:07:57.013Z,13.48
2022-10-09T05:10:41.199Z,13.18
2022-10-09T05:13:25.169Z,13.16
2022-10-09T05:16:11.397Z,13.44
2022-10-09T05:18:58.856Z,13.39
2022-10-09T05:21:42.785Z,13.94
2022-10-09T05:24:27.059Z,13.71
2022-10-09T05:27:11.116Z,14.06
2022-10-09T05:29:55.095Z,14.20
2022-10-09T05:32:39.085Z,14.28
2022-10-09T05:35:24.532Z,14.44
2022-10-09T05:38:08.597Z,14.54
2022-10-09T05:40:53.691Z,14.81
2022-10-09T05:43:39.276Z,14.80
2022-10-09T05:46:25.268Z,14.88
2022-10-09T05:49:09.350Z,15.19
2022-10-09T05:51:56.148Z,15.49
2022-10-09T05:54:40.102Z,15.66
2022-10-09T05:57:24.237Z,15.55
2022-10-09T06:00:09.730Z,16.13
2022-10-09T06:02:56.341Z,15.93
2022-10-09T06:05:40.536Z,15.78
2022-10-09T06:08:26.053Z,16.04
2022-10-09T06:11:12.538Z,16.47
2022-10-09T06:13:57.595Z,16.30
2022-10-09T06:16:43.608Z,16.76
2022-10-09T06:19:27.669Z,16.69
2022-10-09T06:22:11.721Z,16.80
2022-10-09T06:24:57.173Z,16.85
2022-10-09T06:27:41.173Z,17.00
2022-10-09T06:30:25.159Z,17.18
2022-10-09T06:33:09.138Z,17.15
2022-10-09T06:35:56.289Z,17.24
2022-10-09T06:38:44.098Z,17.63
2022-10-09T06:41:30.799Z,17.55
2022-10-09T06:44:17.393Z,17.43
2022-10-09T06:47:01.566Z,17.63
2022-10-09T06:49:45.672Z,18.06
2022-10-09T06:52:29.804Z,17.93
2022-10-09T06:55:13.932Z,18.15
2022-10-09T06:57:59.447Z,18.31
2022-10-09T07:00:43.365Z,17.99
2022-10-09T07:03:27.372Z,18.22
2022-10-09T07:06:12.837Z,18.57
2022-10-09T07:08:59.840Z,18.29
2022-10-09T07:11:45.944Z,18.94
2022-10-09T07:14:31.737Z,19.13
2022-10-09T07:17:15.825Z,19.11
2022-10-09T07:19:59.960Z,18.74
2022-10-09T07:22:43.951Z,18.77
2022-10-09T07:25:27.920Z,19.39
2022-10-09T07:28:12.045Z,19.24
2022-10-09T07:30:57.838Z,19.28
2022-10-09T07:33:42.954Z,19.25
2022-10-09T07:36:27.080Z,19.03
2022-10-09T07:39:11.142Z,19.42
2022-10-09T07:41:55.181Z,19.33
2022-10-09T07:44:39.179Z,19.68
2022-10-09T07:47:24.624Z,19.35
2022-10-09T07:50:09.453Z,19.48
2022-10-09T07:52:53.516Z,19.81
2022-10-09T07:55:37.686Z,19.55
2022-10-09T07:58:21.596Z,19.64
2022-10-09T08:01:07.240Z,20.09
2022-10-09T08:03:53.081Z,20.04
2022-10-09T08:06:37.615Z,20.16
2022-10-09T08:09:21.610Z,20.16
2022-10-09T08:12:05.833Z,20.25
2022-10-09T08:14:49.888Z,20.24
2022-10-09T08:17:34.026Z,19.96
2022-10-09T08:20:19.426Z,20.22
2022-10-09T08:23:03.552Z,20.32
2022-10-09T08:25:47.985Z,20.66
2022-10-09T08:28:32.154Z,20.79
2022-10-09T08:31:18.290Z,20.26
2022-10-09T08:34:04.666Z,20.67
2022-10-09T08:36:50.452Z,20.81
2022-10-09T08:39:34.360Z,20.64
2022-10-09T08:42:32.582Z,21.04
2022-10-09T08:45:19.164Z,21.21
2022-10-09T08:48:07.431Z,21.50
2022-10-09T08:50:53.698Z,21.05
2022-10-09T08:53:44.189Z,21.23
2022-10-09T08:56:28.855Z,21.02
2022-10-09T08:59:13.674Z,21.14
2022-10-09T09:02:09.047Z,21.21
2022-10-09T09:05:05.223Z,21.40
2022-10-09T09:07:57.580Z,21.71
2022-10-09T09:10:50.215Z,21.36
2022-10-09T09:13:50.589Z,21.36
2022-10-09T09:16:44.743Z,21.59
2022-10-09T09:19:47.395Z,21.50
2022-10-09T09:22:33.375Z,21.98
2022-10-09T09:25:23.579Z,21.84
2022-10-09T09:28:25.796Z,22.20
2022-10-09T09:31:17.586Z,22.57
2022-10-09T09:34:06.830Z,21.99
2022-10-09T09:36:54.162Z,21.91
2022-10-09T09:42:43.272Z,22.05
2022-10-09T09:45:29.734Z,22.22
2022-10-09T09:48:18.618Z,22.08
2022-10-09T09:51:27.449Z,22.38
2022-10-09T09:54:16.413Z,22.30
2022-10-09T09:57:13.942Z,22.71
2022-10-09T10:00:19.340Z,22.72
2022-10-09T10:03:12.195Z,22.46
2022-10-09T10:05:56.029Z,22.28
2022-10-09T10:08:39.878Z,22.38
2022-10-09T10:11:23.621Z,22.27
2022-10-09T10:14:08.671Z,22.59
2022-10-09T10:16:53.979Z,22.46
2022-10-09T10:19:39.673Z,22.44
2022-10-09T10:22:26.517Z,22.52
2022-10-09T10:25:16.910Z,22.68
2022-10-09T10:28:12.151Z,22.47
2022-10-09T10:30:58.490Z,22.83
2022-10-09T10:33:45.158Z,23.04
2022-10-09T10:36:30.564Z,22.36
2022-10-09T10:39:22.646Z,22.97
2022-10-09T10:42:13.316Z,23.21
2022-10-09T10:45:03.995Z,22.98
2022-10-09T10:47:52.640Z,23.36
2022-10-09T10:50:44.315Z,23.00
2022-10-09T10:53:42.699Z,22.36
2022-10-09T10:56:31.967Z,23.15
2022-10-09T10:59:31.331Z,22.69
2022-10-09T11:02:43.717Z,22.39
2022-10-09T11:05:37.621Z,22.56
2022-10-09T11:08:44.907Z,23.15
2022-10-09T11:11:37.429Z,23.51
2022-10-09T11:14:38.422Z,23.49
2022-10-09T11:17:32.957Z,23.54
2022-10-09T11:20:37.179Z,24.00
2022-10-09T11:23:32.914Z,24.81
2022-10-09T11:26:26.162Z,24.26
2022-10-09T11:29:16.718Z,24.04
2022-10-09T11:32:05.470Z,24.05
2022-10-09T11:34:56.130Z,23.95
2022-10-09T11:37:43.354Z,23.24
2022-10-09T11:40:33.484Z,24.36
2022-10-09T11:43:42.092Z,24.32
2022-10-09T11:46:36.110Z,24.03
2022-10-09T11:49:26.585Z,23.87
2022-10-09T11:52:20.187Z,23.51
2022-10-09T11:55:18.223Z,23.63
2022-10-09T11:58:22.557Z,23.81
2022-10-09T12:01:24.862Z,23.68
2022-10-09T12:04:32.351Z,23.72
2022-10-09T12:07:32.343Z,23.30
2022-10-09T12:10:32.922Z,23.37
2022-10-09T12:13:32.181Z,23.26
2022-10-09T12:16:37.902Z,23.21
2022-10-09T12:19:25.269Z,23.81
2022-10-09T12:22:16.600Z,23.46
2022-10-09T12:25:07.743Z,23.61
2022-10-09T12:27:55.719Z,23.40
2022-10-09T12:30:47.542Z,23.58
2022-10-09T12:33:38.006Z,23.91
2022-10-09T12:36:25.656Z,23.64
2022-10-09T12:39:20.071Z,24.02
2022-10-09T12:42:04.093Z,23.18
2022-10-09T12:44:49.870Z,23.15
2022-10-09T12:47:36.440Z,23.62
2022-10-09T12:50:25.702Z,24.07
2022-10-09T12:53:15.668Z,23.92
2022-10-09T12:56:01.326Z,23.27
2022-10-09T12:58:45.342Z,23.08
2022-10-09T13:01:29.815Z,23.35
2022-10-09T13:04:27.652Z,23.07
2022-10-09T13:07:21.099Z,22.88
2022-10-09T13:10:09.520Z,23.49
2022-10-09T13:12:57.029Z,23.80
2022-10-09T13:15:40.783Z,23.64
2022-10-09T13:18:24.821Z,23.36
2022-10-09T13:21:24.750Z,23.07
2022-10-09T13:24:12.033Z,23.05
2022-10-09T13:26:55.868Z,23.10
2022-10-09T13:29:40.233Z,22.73
2022-10-09T13:32:25.226Z,23.27
2022-10-09T13:35:09.667Z,23.30
2022-10-09T13:37:53.700Z,23.62
2022-10-09T13:40:40.437Z,23.17
2022-10-09T13:43:27.433Z,23.11
2022-10-09T13:46:11.415Z,23.15
2022-10-09T13:48:55.189Z,23.49
2022-10-09T13:51:38.904Z,23.50
2022-10-09T13:54:22.763Z,23.13
2022-10-09T13:57:08.283Z,22.92
2022-10-09T13:59:51.972Z,22.63
2022-10-09T14:02:36.060Z,22.39
2022-10-09T14:05:19.987Z,22.92
2022-10-09T14:08:03.827Z,22.91
2022-10-09T14:10:47.660Z,22.81
2022-10-09T14:13:33.422Z,22.87
2022-10-09T14:16:17.259Z,23.22
2022-10-09T14:19:03.451Z,23.06
2022-10-09T14:21:47.928Z,23.05
2022-10-09T14:24:31.688Z,22.87
2022-10-09T14:27:15.528Z,22.72
2022-10-09T14:30:00.703Z,22.45
2022-10-09T14:32:44.831Z,22.80
2022-10-09T14:35:28.672Z,22.67
2022-10-09T14:38:12.462Z,23.07
2022-10-09T14:40:57.732Z,22.81
2022-10-09T14:43:41.771Z,22.95
2022-10-09T14:46:28.733Z,22.26
2022-10-09T14:49:12.634Z,22.13
2022-10-09T14:51:56.591Z,22.36
2022-10-09T14:54:41.075Z,22.49
2022-10-09T14:57:24.877Z,22.54
2022-10-09T15:00:09.909Z,22.28
2022-10-09T15:02:57.570Z,22.30
2022-10-09T15:05:43.484Z,22.07
2022-10-09T15:08:27.465Z,21.86
2022-10-09T15:11:13.545Z,21.63
2022-10-09T15:13:58.037Z,21.37
2022-10-09T15:16:41.945Z,21.17
2022-10-09T15:19:27.160Z,20.99
2022-10-09T15:22:10.996Z,21.14
2022-10-09T15:24:54.763Z,21.20
2022-10-09T15:27:38.490Z,21.21
2022-10-09T15:30:22.175Z,20.98
2022-10-09T15:33:05.909Z,21.12
2022-10-09T15:35:51.143Z,20.61
2022-10-09T15:38:35.215Z,20.73
2022-10-09T15:41:23.735Z,20.74
2022-10-09T15:44:13.975Z,20.56
2022-10-09T15:46:57.845Z,20.41
2022-10-09T15:49:41.707Z,19.85
2022-10-09T15:52:27.096Z,20.07
2022-10-09T15:55:10.940Z,20.24
2022-10-09T15:57:54.788Z,20.05
2022-10-09T16:00:39.534Z,19.89
2022-10-09T16:03:23.203Z,19.13
2022-10-09T16:06:10.762Z,19.52
2022-10-09T16:08:59.288Z,19.42
2022-10-09T16:11:43.084Z,19.11
2022-10-09T16:14:29.555Z,19.11
2022-10-09T16:17:13.354Z,19.07
2022-10-09T16:19:57.058Z,18.99
2022-10-09T16:22:40.845Z,18.96
2022-10-09T16:25:26.083Z,19.06
2022-10-09T16:28:11.887Z,18.97
2022-10-09T16:30:56.327Z,18.89
2022-10-09T16:33:40.212Z,18.83
2022-10-09T16:36:24.382Z,18.57
2022-10-09T16:39:08.226Z,18.42
2022-10-09T16:41:53.382Z,18.21
2022-10-09T16:44:37.060Z,18.07
2022-10-09T16:47:20.761Z,18.26
2022-10-09T16:50:04.965Z,18.05
2022-10-09T16:52:49.150Z,18.18
2022-10-09T16:55:33.177Z,18.06
2022-10-09T16:58:18.535Z,18.33
2022-10-09T17:01:07.395Z,18.23
2022-10-09T17:03:55.066Z,18.09
2022-10-09T17:06:40.878Z,18.00
2022-10-09T17:09:24.762Z,17.79
2022-10-09T17:12:11.124Z,17.72
2022-10-09T17:14:57.611Z,17.53
2022-10-09T17:17:41.565Z,17.21
2022-10-09T17:20:25.556Z,17.60
2022-10-09T17:23:09.575Z,17.08
2022-10-09T17:25:53.521Z,17.23
2022-10-09T17:28:37.300Z,17.47
2022-10-09T17:31:24.691Z,17.39
2022-10-09T17:34:08.558Z,17.61
2022-10-09T17:36:52.387Z,17.64
2022-10-09T17:39:36.260Z,17.62
2022-10-09T17:42:20.108Z,17.49
2022-10-09T17:45:03.843Z,17.42
2022-10-09T17:47:49.332Z,17.26
2022-10-09T17:50:33.916Z,17.24
2022-10-09T17:53:18.237Z,17.09
2022-10-09T17:56:05.030Z,17.00
2022-10-09T17:58:50.177Z,17.16
2022-10-09T18:01:34.099Z,17.23
2022-10-09T18:04:19.402Z,17.38
2022-10-09T18:07:03.171Z,17.31
2022-10-09T18:09:46.941Z,17.18
2022-10-09T18:12:30.773Z,17.21
2022-10-09T18:15:14.890Z,17.12
2022-10-09T18:17:58.725Z,17.15
2022-10-09T18:20:43.939Z,17.16
2022-10-09T18:23:27.734Z,16.83
2022-10-09T18:26:13.313Z,16.84
2022-10-09T18:28:57.134Z,16.74
2022-10-09T18:31:41.218Z,16.78
2022-10-09T18:34:24.962Z,16.73
2022-10-09T18:37:10.112Z,16.51
2022-10-09T18:39:53.928Z,16.67
2022-10-09T18:42:37.852Z,16.50
2022-10-09T18:45:21.691Z,16.21
2022-10-09T18:48:08.511Z,16.31
2022-10-09T18:50:52.427Z,16.27
2022-10-09T18:53:39.403Z,16.18
2022-10-09T18:56:23.823Z,16.02
2022-10-09T18:59:11.872Z,15.83
2022-10-09T19:01:55.667Z,15.80
2022-10-09T19:04:39.409Z,15.69
2022-10-09T19:07:23.263Z,15.50
2022-10-09T19:10:09.132Z,15.51
2022-10-09T19:12:54.428Z,15.30
2022-10-09T19:15:38.308Z,15.24
2022-10-09T19:18:22.825Z,15.15
2022-10-09T19:21:07.064Z,15.17
2022-10-09T19:23:51.888Z,15.24
2022-10-09T19:26:37.035Z,15.06
2022-10-09T19:29:20.735Z,15.12
2022-10-09T19:32:04.436Z,15.07
2022-10-09T19:34:48.145Z,15.16
2022-10-09T19:37:31.918Z,15.20
2022-10-09T19:40:15.952Z,15.00
2022-10-09T19:43:01.120Z,15.13
2022-10-09T19:45:45.220Z,15.39
2022-10-09T19:48:29.027Z,15.10
2022-10-09T19:51:14.881Z,15.80
2022-10-09T19:53:59.225Z,15.84
2022-10-09T19:56:43.323Z,15.94
2022-10-09T19:59:29.314Z,15.67
2022-10-09T20:02:13.306Z,15.93
2022-10-09T20:04:57.252Z,16.02
2022-10-09T20:07:41.268Z,15.83
2022-10-09T20:10:25.169Z,16.02
2022-10-09T20:13:09.000Z,15.91
2022-10-09T20:15:54.179Z,15.84
2022-10-09T20:18:39.460Z,16.05
2022-10-09T20:21:23.608Z,15.90
2022-10-09T20:24:08.366Z,15.86
2022-10-09T20:26:52.197Z,15.81
2022-10-09T20:29:36.053Z,15.88
2022-10-09T20:32:21.185Z,16.05
2022-10-09T20:35:05.834Z,15.97
2022-10-09T20:37:49.773Z,16.10
2022-10-09T20:40:34.202Z,15.57
2022-10-09T20:43:18.129Z,15.92
2022-10-09T20:46:07.126Z,15.89
2022-10-09T20:48:53.926Z,15.63
2022-10-09T20:51:39.043Z,15.85
2022-10-09T20:54:23.431Z,15.90
2022-10-09T20:57:07.405Z,15.69
2022-10-09T20:59:51.500Z,15.87
2022-10-09T21:02:35.440Z,15.67
2022-10-09T21:05:20.854Z,15.64
2022-10-09T21:08:04.765Z,15.76
2022-10-09T21:10:50.554Z,15.66
2022-10-09T21:13:35.350Z,15.85
2022-10-09T21:16:21.483Z,15.53
2022-10-09T21:19:08.010Z,15.59
2022-10-09T21:21:53.448Z,15.45
2022-10-09T21:24:38.210Z,15.50
2022-10-09T21:27:22.016Z,15.70
2022-10-09T21:30:06.562Z,15.70
2022-10-09T21:32:50.541Z,15.57
2022-10-09T21:35:39.859Z,15.77
2022-10-09T21:38:25.117Z,15.75
2022-10-09T21:41:08.848Z,15.79
2022-10-09T21:43:52.600Z,15.76
2022-10-09T21:46:37.722Z,15.71
2022-10-09T21:49:23.968Z,15.63
2022-10-09T21:52:07.744Z,15.55
2022-10-09T21:54:52.987Z,15.54
2022-10-09T21:57:36.858Z,15.11
2022-10-09T22:00:21.108Z,15.35
2022-10-09T22:03:05.260Z,15.30
2022-10-09T22:05:49.247Z,15.10
2022-10-09T22:08:33.197Z,15.28
2022-10-09T22:11:18.528Z,15.22
2022-10-09T22:14:02.300Z,15.29
2022-10-09T22:16:46.133Z,15.38
2022-10-09T22:19:29.907Z,15.41
2022-10-09T22:22:13.728Z,15.17
2022-10-09T22:24:59.344Z,15.25
2022-10-09T22:27:44.493Z,15.15
2022-10-09T22:30:28.238Z,15.54
2022-10-09T22:33:12.231Z,15.30
2022-10-09T22:36:03.620Z,15.08
2022-10-09T22:38:47.487Z,14.81
2022-10-09T22:41:33.071Z,14.73
2022-10-09T22:44:18.263Z,14.79
2022-10-09T22:47:02.061Z,14.86
2022-10-09T22:49:46.235Z,14.74
2022-10-09T22:52:30.289Z,14.28
2022-10-09T22:55:14.474Z,14.48
2022-10-09T22:57:58.470Z,13.99
2022-10-09T23:00:43.888Z,14.01
2022-10-09T23:03:27.943Z,14.14
2022-10-09T23:06:14.355Z,14.17
2022-10-09T23:08:58.525Z,13.89
2022-10-09T23:11:42.541Z,14.10
2022-10-09T23:14:27.573Z,13.98
2022-10-09T23:17:12.668Z,14.14
2022-10-09T23:19:56.345Z,14.06
2022-10-09T23:22:40.041Z,13.98
2022-10-09T23:25:23.779Z,13.81
2022-10-09T23:28:07.718Z,13.66
2022-10-09T23:30:51.640Z,13.93
2022-10-09T23:33:38.968Z,13.75
2022-10-09T23:36:25.245Z,13.92
2022-10-09T23:39:09.324Z,13.84
2022-10-09T23:41:53.138Z,13.93
2022-10-09T23:44:36.950Z,13.58
2022-10-09T23:47:20.726Z,13.68
2022-10-09T23:50:07.356Z,13.77
2022-10-09T23:52:51.510Z,13.71
2022-10-09T23:55:35.512Z,13.63
2022-10-09T23:58:21.000Z,13.71
